sensor_id;sensor_type;location;lat;lon;timestamp;P1;durP1;ratioP1;P2;durP2;ratioP2
15287;SDS011;7745;48.708;9.026;2023-02-01T00:01:50;6.03;;;4.43;;
15287;SDS011;7745;48.708;9.026;2023-02-01T00:04:17;6.13;;;4.67;;
15287;SDS011;7745;48.708;9.026;2023-02-01T00:06:44;5.47;;;4.73;;
15287;SDS011;7745;48.708;9.026;2023-02-01T00:09:12;5.83;;;4.53;;
15287;SDS011;7745;48.708;9.026;2023-02-01T00:11:39;5.63;;;4.00;;
15287;SDS011;7745;48.708;9.026;2023-02-01T00:14:06;5.00;;;4.20;;
15287;SDS011;7745;48.708;9.026;2023-02-01T00:16:33;6.30;;;4.30;;
15287;SDS011;7745;48.708;9.026;2023-02-01T00:19:00;5.23;;;4.23;;
15287;SDS011;7745;48.708;9.026;2023-02-01T00:21:29;4.93;;;4.20;;
15287;SDS011;7745;48.708;9.026;2023-02-01T00:23:56;5.53;;;4.17;;
15287;SDS011;7745;48.708;9.026;2023-02-01T00:26:27;4.60;;;4.10;;
15287;SDS011;7745;48.708;9.026;2023-02-01T00:28:57;5.10;;;4.10;;
15287;SDS011;7745;48.708;9.026;2023-02-01T00:31:24;4.03;;;3.63;;
15287;SDS011;7745;48.708;9.026;2023-02-01T00:33:51;5.97;;;3.63;;
15287;SDS011;7745;48.708;9.026;2023-02-01T00:36:18;4.23;;;3.83;;
15287;SDS011;7745;48.708;9.026;2023-02-01T00:38:45;4.57;;;4.03;;
15287;SDS011;7745;48.708;9.026;2023-02-01T00:41:12;4.20;;;3.80;;
15287;SDS011;7745;48.708;9.026;2023-02-01T00:43:42;4.93;;;3.80;;
15287;SDS011;7745;48.708;9.026;2023-02-01T00:46:10;4.77;;;3.27;;
15287;SDS011;7745;48.708;9.026;2023-02-01T00:48:38;4.50;;;3.53;;
15287;SDS011;7745;48.708;9.026;2023-02-01T00:51:06;3.87;;;3.13;;
15287;SDS011;7745;48.708;9.026;2023-02-01T00:53:34;4.00;;;2.90;;
15287;SDS011;7745;48.708;9.026;2023-02-01T00:56:01;3.17;;;2.80;;
15287;SDS011;7745;48.708;9.026;2023-02-01T00:58:29;3.10;;;2.80;;
15287;SDS011;7745;48.708;9.026;2023-02-01T01:01:05;3.30;;;2.83;;
15287;SDS011;7745;48.708;9.026;2023-02-01T01:03:35;4.43;;;3.00;;
15287;SDS011;7745;48.708;9.026;2023-02-01T01:06:04;3.33;;;3.00;;
15287;SDS011;7745;48.708;9.026;2023-02-01T01:08:32;3.83;;;2.90;;
15287;SDS011;7745;48.708;9.026;2023-02-01T01:11:03;3.77;;;3.00;;
15287;SDS011;7745;48.708;9.026;2023-02-01T01:13:30;3.83;;;3.20;;
15287;SDS011;7745;48.708;9.026;2023-02-01T01:15:59;3.00;;;2.50;;
15287;SDS011;7745;48.708;9.026;2023-02-01T01:18:29;2.70;;;2.50;;
15287;SDS011;7745;48.708;9.026;2023-02-01T01:20:56;4.70;;;3.07;;
15287;SDS011;7745;48.708;9.026;2023-02-01T01:23:23;3.90;;;2.90;;
15287;SDS011;7745;48.708;9.026;2023-02-01T01:25:50;3.43;;;2.63;;
15287;SDS011;7745;48.708;9.026;2023-02-01T01:28:17;2.80;;;2.47;;
15287;SDS011;7745;48.708;9.026;2023-02-01T01:30:43;3.20;;;2.40;;
15287;SDS011;7745;48.708;9.026;2023-02-01T01:33:10;2.70;;;2.50;;
15287;SDS011;7745;48.708;9.026;2023-02-01T01:35:39;4.37;;;2.90;;
15287;SDS011;7745;48.708;9.026;2023-02-01T01:38:05;3.10;;;2.60;;
15287;SDS011;7745;48.708;9.026;2023-02-01T01:40:32;2.93;;;2.60;;
15287;SDS011;7745;48.708;9.026;2023-02-01T01:42:59;4.00;;;2.83;;
15287;SDS011;7745;48.708;9.026;2023-02-01T01:45:27;2.90;;;2.63;;
15287;SDS011;7745;48.708;9.026;2023-02-01T01:47:58;2.93;;;2.70;;
15287;SDS011;7745;48.708;9.026;2023-02-01T01:50:27;3.83;;;3.33;;
15287;SDS011;7745;48.708;9.026;2023-02-01T01:52:57;4.33;;;3.83;;
15287;SDS011;7745;48.708;9.026;2023-02-01T01:55:30;5.23;;;4.00;;
15287;SDS011;7745;48.708;9.026;2023-02-01T01:57:59;4.60;;;3.80;;
15287;SDS011;7745;48.708;9.026;2023-02-01T02:00:30;5.53;;;4.17;;
15287;SDS011;7745;48.708;9.026;2023-02-01T02:02:59;5.87;;;4.80;;
15287;SDS011;7745;48.708;9.026;2023-02-01T02:05:29;5.37;;;4.23;;
15287;SDS011;7745;48.708;9.026;2023-02-01T02:07:59;5.13;;;4.63;;
15287;SDS011;7745;48.708;9.026;2023-02-01T02:10:26;5.50;;;4.20;;
15287;SDS011;7745;48.708;9.026;2023-02-01T02:13:08;5.20;;;4.70;;
15287;SDS011;7745;48.708;9.026;2023-02-01T02:15:36;6.00;;;4.50;;
15287;SDS011;7745;48.708;9.026;2023-02-01T02:18:07;5.20;;;4.23;;
15287;SDS011;7745;48.708;9.026;2023-02-01T02:20:52;5.33;;;4.30;;
15287;SDS011;7745;48.708;9.026;2023-02-01T02:23:50;4.60;;;4.17;;
15287;SDS011;7745;48.708;9.026;2023-02-01T02:26:40;5.90;;;4.30;;
15287;SDS011;7745;48.708;9.026;2023-02-01T02:29:32;4.67;;;4.10;;
15287;SDS011;7745;48.708;9.026;2023-02-01T02:35:24;4.80;;;3.87;;
15287;SDS011;7745;48.708;9.026;2023-02-01T02:37:59;5.00;;;4.23;;
15287;SDS011;7745;48.708;9.026;2023-02-01T02:40:37;4.73;;;4.20;;
15287;SDS011;7745;48.708;9.026;2023-02-01T02:43:12;4.60;;;4.20;;
15287;SDS011;7745;48.708;9.026;2023-02-01T02:46:04;5.47;;;3.77;;
15287;SDS011;7745;48.708;9.026;2023-02-01T02:48:54;5.37;;;3.60;;
15287;SDS011;7745;48.708;9.026;2023-02-01T02:51:27;3.77;;;3.43;;
15287;SDS011;7745;48.708;9.026;2023-02-01T02:54:17;4.33;;;3.27;;
15287;SDS011;7745;48.708;9.026;2023-02-01T02:57:06;3.67;;;3.23;;
15287;SDS011;7745;48.708;9.026;2023-02-01T02:59:53;3.50;;;3.20;;
15287;SDS011;7745;48.708;9.026;2023-02-01T03:02:40;3.87;;;3.40;;
15287;SDS011;7745;48.708;9.026;2023-02-01T03:05:25;3.70;;;3.10;;
15287;SDS011;7745;48.708;9.026;2023-02-01T03:08:02;3.40;;;3.10;;
15287;SDS011;7745;48.708;9.026;2023-02-01T03:10:33;4.37;;;3.17;;
15287;SDS011;7745;48.708;9.026;2023-02-01T03:13:08;4.67;;;3.20;;
15287;SDS011;7745;48.708;9.026;2023-02-01T03:15:38;4.00;;;3.50;;
15287;SDS011;7745;48.708;9.026;2023-02-01T03:18:13;4.10;;;3.50;;
15287;SDS011;7745;48.708;9.026;2023-02-01T03:20:43;4.53;;;3.27;;
15287;SDS011;7745;48.708;9.026;2023-02-01T03:23:16;3.60;;;3.30;;
15287;SDS011;7745;48.708;9.026;2023-02-01T03:25:46;3.27;;;2.97;;
15287;SDS011;7745;48.708;9.026;2023-02-01T03:28:14;4.33;;;3.60;;
15287;SDS011;7745;48.708;9.026;2023-02-01T03:30:46;4.00;;;3.20;;
15287;SDS011;7745;48.708;9.026;2023-02-01T03:33:14;5.60;;;3.40;;
15287;SDS011;7745;48.708;9.026;2023-02-01T03:35:50;4.57;;;3.30;;
15287;SDS011;7745;48.708;9.026;2023-02-01T03:38:25;4.70;;;3.40;;
15287;SDS011;7745;48.708;9.026;2023-02-01T03:40:57;3.70;;;3.20;;
15287;SDS011;7745;48.708;9.026;2023-02-01T03:43:29;3.70;;;3.40;;
15287;SDS011;7745;48.708;9.026;2023-02-01T03:46:03;2.87;;;2.57;;
15287;SDS011;7745;48.708;9.026;2023-02-01T03:48:35;3.40;;;3.10;;
15287;SDS011;7745;48.708;9.026;2023-02-01T03:51:03;3.47;;;3.00;;
15287;SDS011;7745;48.708;9.026;2023-02-01T03:53:33;3.40;;;3.07;;
15287;SDS011;7745;48.708;9.026;2023-02-01T03:56:03;3.93;;;2.90;;
15287;SDS011;7745;48.708;9.026;2023-02-01T03:58:30;3.57;;;3.27;;
15287;SDS011;7745;48.708;9.026;2023-02-01T04:00:57;3.17;;;2.87;;
15287;SDS011;7745;48.708;9.026;2023-02-01T04:03:26;3.87;;;3.10;;
15287;SDS011;7745;48.708;9.026;2023-02-01T04:05:53;3.33;;;3.03;;
15287;SDS011;7745;48.708;9.026;2023-02-01T04:08:20;3.53;;;3.23;;
15287;SDS011;7745;48.708;9.026;2023-02-01T04:10:49;3.10;;;2.80;;
15287;SDS011;7745;48.708;9.026;2023-02-01T04:13:16;3.73;;;2.90;;
15287;SDS011;7745;48.708;9.026;2023-02-01T04:15:43;3.77;;;3.00;;
15287;SDS011;7745;48.708;9.026;2023-02-01T04:18:10;4.10;;;2.97;;
15287;SDS011;7745;48.708;9.026;2023-02-01T04:20:37;3.57;;;2.57;;
15287;SDS011;7745;48.708;9.026;2023-02-01T04:23:04;3.03;;;2.73;;
15287;SDS011;7745;48.708;9.026;2023-02-01T04:25:31;4.20;;;2.67;;
15287;SDS011;7745;48.708;9.026;2023-02-01T04:27:59;4.23;;;2.63;;
15287;SDS011;7745;48.708;9.026;2023-02-01T04:30:25;5.03;;;3.00;;
15287;SDS011;7745;48.708;9.026;2023-02-01T04:32:52;3.90;;;2.83;;
15287;SDS011;7745;48.708;9.026;2023-02-01T04:35:19;2.87;;;2.67;;
15287;SDS011;7745;48.708;9.026;2023-02-01T04:37:46;3.57;;;3.23;;
15287;SDS011;7745;48.708;9.026;2023-02-01T04:40:13;3.20;;;2.90;;
15287;SDS011;7745;48.708;9.026;2023-02-01T04:42:40;4.20;;;3.17;;
15287;SDS011;7745;48.708;9.026;2023-02-01T04:45:09;3.57;;;3.27;;
15287;SDS011;7745;48.708;9.026;2023-02-01T04:47:36;4.90;;;3.47;;
15287;SDS011;7745;48.708;9.026;2023-02-01T04:50:03;4.63;;;3.50;;
15287;SDS011;7745;48.708;9.026;2023-02-01T04:52:32;3.60;;;3.30;;
15287;SDS011;7745;48.708;9.026;2023-02-01T04:54:59;4.37;;;3.77;;
15287;SDS011;7745;48.708;9.026;2023-02-01T04:57:28;5.07;;;3.60;;
15287;SDS011;7745;48.708;9.026;2023-02-01T04:59:54;4.60;;;3.53;;
15287;SDS011;7745;48.708;9.026;2023-02-01T05:02:22;5.10;;;3.50;;
15287;SDS011;7745;48.708;9.026;2023-02-01T05:04:49;3.53;;;3.23;;
15287;SDS011;7745;48.708;9.026;2023-02-01T05:07:16;4.17;;;3.60;;
15287;SDS011;7745;48.708;9.026;2023-02-01T05:09:43;3.93;;;3.30;;
15287;SDS011;7745;48.708;9.026;2023-02-01T05:12:10;5.67;;;3.83;;
15287;SDS011;7745;48.708;9.026;2023-02-01T05:14:54;3.77;;;2.97;;
15287;SDS011;7745;48.708;9.026;2023-02-01T05:17:22;4.00;;;3.10;;
15287;SDS011;7745;48.708;9.026;2023-02-01T05:19:49;3.93;;;3.03;;
15287;SDS011;7745;48.708;9.026;2023-02-01T05:22:16;3.77;;;3.43;;
15287;SDS011;7745;48.708;9.026;2023-02-01T05:24:42;3.73;;;3.27;;
15287;SDS011;7745;48.708;9.026;2023-02-01T05:27:09;4.60;;;3.33;;
15287;SDS011;7745;48.708;9.026;2023-02-01T05:29:36;4.50;;;3.43;;
15287;SDS011;7745;48.708;9.026;2023-02-01T05:32:03;5.00;;;3.37;;
15287;SDS011;7745;48.708;9.026;2023-02-01T05:34:31;5.17;;;3.30;;
15287;SDS011;7745;48.708;9.026;2023-02-01T05:36:58;3.57;;;3.10;;
15287;SDS011;7745;48.708;9.026;2023-02-01T05:39:25;5.67;;;3.23;;
15287;SDS011;7745;48.708;9.026;2023-02-01T05:41:52;4.33;;;3.20;;
15287;SDS011;7745;48.708;9.026;2023-02-01T05:44:18;4.63;;;3.57;;
15287;SDS011;7745;48.708;9.026;2023-02-01T05:46:45;4.07;;;3.40;;
15287;SDS011;7745;48.708;9.026;2023-02-01T05:49:12;7.83;;;3.53;;
15287;SDS011;7745;48.708;9.026;2023-02-01T05:51:40;4.10;;;3.40;;
15287;SDS011;7745;48.708;9.026;2023-02-01T05:54:08;4.00;;;3.03;;
15287;SDS011;7745;48.708;9.026;2023-02-01T05:56:35;4.57;;;3.07;;
15287;SDS011;7745;48.708;9.026;2023-02-01T05:59:01;5.13;;;3.03;;
15287;SDS011;7745;48.708;9.026;2023-02-01T06:01:28;4.23;;;3.03;;
15287;SDS011;7745;48.708;9.026;2023-02-01T06:03:55;5.77;;;3.13;;
15287;SDS011;7745;48.708;9.026;2023-02-01T06:06:22;3.20;;;2.90;;
15287;SDS011;7745;48.708;9.026;2023-02-01T06:08:50;3.20;;;2.80;;
15287;SDS011;7745;48.708;9.026;2023-02-01T06:11:16;5.37;;;3.30;;
15287;SDS011;7745;48.708;9.026;2023-02-01T06:13:43;4.20;;;3.23;;
15287;SDS011;7745;48.708;9.026;2023-02-01T06:16:10;4.03;;;3.00;;
15287;SDS011;7745;48.708;9.026;2023-02-01T06:18:37;3.43;;;3.13;;
15287;SDS011;7745;48.708;9.026;2023-02-01T06:21:04;5.07;;;3.03;;
15287;SDS011;7745;48.708;9.026;2023-02-01T06:23:31;3.80;;;3.00;;
15287;SDS011;7745;48.708;9.026;2023-02-01T06:26:00;5.63;;;3.10;;
15287;SDS011;7745;48.708;9.026;2023-02-01T06:28:29;4.17;;;3.13;;
15287;SDS011;7745;48.708;9.026;2023-02-01T06:30:56;7.03;;;3.40;;
15287;SDS011;7745;48.708;9.026;2023-02-01T06:33:23;5.23;;;3.43;;
15287;SDS011;7745;48.708;9.026;2023-02-01T06:35:56;5.73;;;3.40;;
15287;SDS011;7745;48.708;9.026;2023-02-01T06:38:23;6.13;;;3.40;;
15287;SDS011;7745;48.708;9.026;2023-02-01T06:40:51;7.20;;;3.73;;
15287;SDS011;7745;48.708;9.026;2023-02-01T06:43:20;4.93;;;3.53;;
15287;SDS011;7745;48.708;9.026;2023-02-01T06:45:47;3.73;;;2.93;;
15287;SDS011;7745;48.708;9.026;2023-02-01T06:48:13;4.90;;;3.43;;
15287;SDS011;7745;48.708;9.026;2023-02-01T06:50:40;8.33;;;3.30;;
15287;SDS011;7745;48.708;9.026;2023-02-01T06:53:07;9.13;;;3.57;;
15287;SDS011;7745;48.708;9.026;2023-02-01T06:55:34;6.63;;;3.03;;
15287;SDS011;7745;48.708;9.026;2023-02-01T06:58:01;4.87;;;3.67;;
15287;SDS011;7745;48.708;9.026;2023-02-01T07:00:30;5.87;;;3.57;;
15287;SDS011;7745;48.708;9.026;2023-02-01T07:02:57;7.03;;;3.50;;
15287;SDS011;7745;48.708;9.026;2023-02-01T07:05:25;4.60;;;3.10;;
15287;SDS011;7745;48.708;9.026;2023-02-01T07:07:51;6.47;;;3.43;;
15287;SDS011;7745;48.708;9.026;2023-02-01T07:10:18;5.07;;;3.10;;
15287;SDS011;7745;48.708;9.026;2023-02-01T07:12:45;3.63;;;2.70;;
15287;SDS011;7745;48.708;9.026;2023-02-01T07:15:12;4.43;;;3.07;;
15287;SDS011;7745;48.708;9.026;2023-02-01T07:17:40;2.70;;;2.50;;
15287;SDS011;7745;48.708;9.026;2023-02-01T07:20:07;3.63;;;3.17;;
15287;SDS011;7745;48.708;9.026;2023-02-01T07:22:35;5.23;;;2.73;;
15287;SDS011;7745;48.708;9.026;2023-02-01T07:25:02;3.57;;;2.90;;
15287;SDS011;7745;48.708;9.026;2023-02-01T07:27:33;4.33;;;3.23;;
15287;SDS011;7745;48.708;9.026;2023-02-01T07:30:00;4.70;;;2.70;;
15287;SDS011;7745;48.708;9.026;2023-02-01T07:32:28;5.43;;;3.10;;
15287;SDS011;7745;48.708;9.026;2023-02-01T07:34:56;3.47;;;2.80;;
15287;SDS011;7745;48.708;9.026;2023-02-01T07:37:23;5.23;;;3.67;;
15287;SDS011;7745;48.708;9.026;2023-02-01T07:39:50;5.83;;;3.53;;
15287;SDS011;7745;48.708;9.026;2023-02-01T07:42:17;7.07;;;3.97;;
15287;SDS011;7745;48.708;9.026;2023-02-01T07:44:43;5.33;;;3.70;;
15287;SDS011;7745;48.708;9.026;2023-02-01T07:47:11;8.97;;;4.93;;
15287;SDS011;7745;48.708;9.026;2023-02-01T07:49:38;8.93;;;4.40;;
15287;SDS011;7745;48.708;9.026;2023-02-01T07:52:06;6.60;;;3.40;;
15287;SDS011;7745;48.708;9.026;2023-02-01T07:54:33;5.73;;;3.10;;
15287;SDS011;7745;48.708;9.026;2023-02-01T07:57:01;10.33;;;3.70;;
15287;SDS011;7745;48.708;9.026;2023-02-01T07:59:28;6.93;;;3.20;;
15287;SDS011;7745;48.708;9.026;2023-02-01T08:01:55;8.93;;;3.70;;
15287;SDS011;7745;48.708;9.026;2023-02-01T08:04:21;8.03;;;3.10;;
15287;SDS011;7745;48.708;9.026;2023-02-01T08:06:47;4.83;;;3.20;;
15287;SDS011;7745;48.708;9.026;2023-02-01T08:09:16;6.50;;;3.90;;
15287;SDS011;7745;48.708;9.026;2023-02-01T08:11:42;6.83;;;3.17;;
15287;SDS011;7745;48.708;9.026;2023-02-01T08:14:09;8.10;;;4.40;;
15287;SDS011;7745;48.708;9.026;2023-02-01T08:16:36;5.57;;;3.80;;
15287;SDS011;7745;48.708;9.026;2023-02-01T08:19:04;5.40;;;3.57;;
15287;SDS011;7745;48.708;9.026;2023-02-01T08:21:30;5.27;;;3.73;;
15287;SDS011;7745;48.708;9.026;2023-02-01T08:24:03;10.40;;;3.57;;
15287;SDS011;7745;48.708;9.026;2023-02-01T08:26:32;7.47;;;3.60;;
15287;SDS011;7745;48.708;9.026;2023-02-01T08:29:00;7.73;;;4.03;;
15287;SDS011;7745;48.708;9.026;2023-02-01T08:31:28;7.20;;;4.17;;
15287;SDS011;7745;48.708;9.026;2023-02-01T08:33:56;7.20;;;3.30;;
15287;SDS011;7745;48.708;9.026;2023-02-01T08:36:24;7.80;;;3.47;;
15287;SDS011;7745;48.708;9.026;2023-02-01T08:38:52;5.50;;;3.10;;
15287;SDS011;7745;48.708;9.026;2023-02-01T08:41:20;7.93;;;3.80;;
15287;SDS011;7745;48.708;9.026;2023-02-01T08:43:50;8.37;;;3.40;;
15287;SDS011;7745;48.708;9.026;2023-02-01T08:46:17;5.73;;;3.20;;
15287;SDS011;7745;48.708;9.026;2023-02-01T08:48:45;7.57;;;3.03;;
15287;SDS011;7745;48.708;9.026;2023-02-01T08:51:13;7.70;;;3.00;;
15287;SDS011;7745;48.708;9.026;2023-02-01T08:53:41;5.60;;;3.30;;
15287;SDS011;7745;48.708;9.026;2023-02-01T08:56:09;7.97;;;3.53;;
15287;SDS011;7745;48.708;9.026;2023-02-01T08:58:37;7.37;;;3.30;;
15287;SDS011;7745;48.708;9.026;2023-02-01T09:01:06;10.23;;;3.97;;
15287;SDS011;7745;48.708;9.026;2023-02-01T09:03:34;10.80;;;3.33;;
15287;SDS011;7745;48.708;9.026;2023-02-01T09:06:01;6.57;;;3.00;;
15287;SDS011;7745;48.708;9.026;2023-02-01T09:08:31;7.10;;;2.87;;
15287;SDS011;7745;48.708;9.026;2023-02-01T09:10:59;8.63;;;2.90;;
15287;SDS011;7745;48.708;9.026;2023-02-01T09:13:26;7.73;;;2.73;;
15287;SDS011;7745;48.708;9.026;2023-02-01T09:15:53;10.20;;;2.93;;
15287;SDS011;7745;48.708;9.026;2023-02-01T09:18:21;6.63;;;2.70;;
15287;SDS011;7745;48.708;9.026;2023-02-01T09:20:48;10.23;;;3.30;;
15287;SDS011;7745;48.708;9.026;2023-02-01T09:23:15;7.00;;;2.80;;
15287;SDS011;7745;48.708;9.026;2023-02-01T09:25:41;7.07;;;3.20;;
15287;SDS011;7745;48.708;9.026;2023-02-01T09:28:08;12.37;;;3.83;;
15287;SDS011;7745;48.708;9.026;2023-02-01T09:30:35;9.33;;;3.40;;
15287;SDS011;7745;48.708;9.026;2023-02-01T09:33:03;9.67;;;3.07;;
15287;SDS011;7745;48.708;9.026;2023-02-01T09:35:31;10.17;;;3.70;;
15287;SDS011;7745;48.708;9.026;2023-02-01T09:37:58;6.70;;;2.87;;
15287;SDS011;7745;48.708;9.026;2023-02-01T09:40:25;8.50;;;3.33;;
15287;SDS011;7745;48.708;9.026;2023-02-01T09:45:42;8.67;;;3.40;;
15287;SDS011;7745;48.708;9.026;2023-02-01T09:48:18;10.03;;;3.37;;
15287;SDS011;7745;48.708;9.026;2023-02-01T09:50:50;12.67;;;3.63;;
15287;SDS011;7745;48.708;9.026;2023-02-01T09:53:21;11.27;;;3.63;;
15287;SDS011;7745;48.708;9.026;2023-02-01T09:55:54;8.67;;;3.77;;
15287;SDS011;7745;48.708;9.026;2023-02-01T09:58:25;11.73;;;3.87;;
15287;SDS011;7745;48.708;9.026;2023-02-01T10:00:56;9.47;;;3.40;;
15287;SDS011;7745;48.708;9.026;2023-02-01T10:03:24;11.13;;;3.47;;
15287;SDS011;7745;48.708;9.026;2023-02-01T10:06:04;11.57;;;3.80;;
15287;SDS011;7745;48.708;9.026;2023-02-01T10:08:46;9.70;;;3.30;;
15287;SDS011;7745;48.708;9.026;2023-02-01T10:11:41;12.13;;;3.80;;
15287;SDS011;7745;48.708;9.026;2023-02-01T10:14:28;10.87;;;3.10;;
15287;SDS011;7745;48.708;9.026;2023-02-01T10:17:25;15.00;;;2.77;;
15287;SDS011;7745;48.708;9.026;2023-02-01T10:20:03;11.27;;;3.20;;
15287;SDS011;7745;48.708;9.026;2023-02-01T10:22:41;8.30;;;3.17;;
15287;SDS011;7745;48.708;9.026;2023-02-01T10:25:13;9.60;;;2.97;;
15287;SDS011;7745;48.708;9.026;2023-02-01T10:27:44;10.30;;;3.27;;
15287;SDS011;7745;48.708;9.026;2023-02-01T10:30:16;9.90;;;2.97;;
15287;SDS011;7745;48.708;9.026;2023-02-01T10:32:45;12.57;;;3.20;;
15287;SDS011;7745;48.708;9.026;2023-02-01T10:35:15;10.37;;;3.03;;
15287;SDS011;7745;48.708;9.026;2023-02-01T10:37:47;14.47;;;3.10;;
15287;SDS011;7745;48.708;9.026;2023-02-01T10:40:16;8.73;;;2.60;;
15287;SDS011;7745;48.708;9.026;2023-02-01T10:42:46;13.27;;;2.80;;
15287;SDS011;7745;48.708;9.026;2023-02-01T10:45:14;10.63;;;3.40;;
15287;SDS011;7745;48.708;9.026;2023-02-01T10:47:43;7.63;;;2.37;;
15287;SDS011;7745;48.708;9.026;2023-02-01T10:50:16;12.40;;;2.50;;
15287;SDS011;7745;48.708;9.026;2023-02-01T10:52:52;11.93;;;2.90;;
15287;SDS011;7745;48.708;9.026;2023-02-01T10:58:15;11.43;;;3.07;;
15287;SDS011;7745;48.708;9.026;2023-02-01T11:00:44;9.60;;;2.63;;
15287;SDS011;7745;48.708;9.026;2023-02-01T11:03:20;11.67;;;3.03;;
15287;SDS011;7745;48.708;9.026;2023-02-01T11:05:59;8.57;;;2.40;;
15287;SDS011;7745;48.708;9.026;2023-02-01T11:08:31;9.47;;;2.97;;
15287;SDS011;7745;48.708;9.026;2023-02-01T11:11:09;12.53;;;3.03;;
15287;SDS011;7745;48.708;9.026;2023-02-01T11:13:39;10.73;;;2.80;;
15287;SDS011;7745;48.708;9.026;2023-02-01T11:16:09;9.77;;;2.60;;
15287;SDS011;7745;48.708;9.026;2023-02-01T11:18:39;11.00;;;3.03;;
15287;SDS011;7745;48.708;9.026;2023-02-01T11:21:06;12.30;;;3.10;;
15287;SDS011;7745;48.708;9.026;2023-02-01T11:23:40;9.03;;;2.43;;
15287;SDS011;7745;48.708;9.026;2023-02-01T11:26:10;12.30;;;3.23;;
15287;SDS011;7745;48.708;9.026;2023-02-01T11:28:40;23.97;;;4.50;;
15287;SDS011;7745;48.708;9.026;2023-02-01T11:31:16;14.30;;;3.97;;
15287;SDS011;7745;48.708;9.026;2023-02-01T11:33:45;9.57;;;2.90;;
15287;SDS011;7745;48.708;9.026;2023-02-01T11:36:15;10.87;;;3.37;;
15287;SDS011;7745;48.708;9.026;2023-02-01T11:38:47;13.83;;;3.50;;
15287;SDS011;7745;48.708;9.026;2023-02-01T11:41:21;10.40;;;3.40;;
15287;SDS011;7745;48.708;9.026;2023-02-01T11:43:52;13.33;;;2.73;;
15287;SDS011;7745;48.708;9.026;2023-02-01T11:46:22;9.03;;;2.90;;
15287;SDS011;7745;48.708;9.026;2023-02-01T11:48:54;8.47;;;2.90;;
15287;SDS011;7745;48.708;9.026;2023-02-01T11:51:35;10.87;;;3.07;;
15287;SDS011;7745;48.708;9.026;2023-02-01T11:54:27;11.30;;;3.07;;
15287;SDS011;7745;48.708;9.026;2023-02-01T11:57:09;8.77;;;2.93;;
15287;SDS011;7745;48.708;9.026;2023-02-01T12:00:00;11.80;;;3.10;;
15287;SDS011;7745;48.708;9.026;2023-02-01T12:02:45;12.10;;;2.57;;
15287;SDS011;7745;48.708;9.026;2023-02-01T12:05:29;12.43;;;2.67;;
15287;SDS011;7745;48.708;9.026;2023-02-01T12:11:16;8.67;;;2.87;;
15287;SDS011;7745;48.708;9.026;2023-02-01T12:14:08;10.57;;;2.80;;
15287;SDS011;7745;48.708;9.026;2023-02-01T12:16:53;13.87;;;3.03;;
15287;SDS011;7745;48.708;9.026;2023-02-01T12:19:38;15.23;;;2.97;;
15287;SDS011;7745;48.708;9.026;2023-02-01T12:22:23;7.87;;;3.07;;
15287;SDS011;7745;48.708;9.026;2023-02-01T12:33:57;8.90;;;2.50;;
15287;SDS011;7745;48.708;9.026;2023-02-01T12:36:38;9.43;;;2.80;;
15287;SDS011;7745;48.708;9.026;2023-02-01T12:39:15;10.23;;;2.80;;
15287;SDS011;7745;48.708;9.026;2023-02-01T12:41:53;10.17;;;2.70;;
15287;SDS011;7745;48.708;9.026;2023-02-01T12:44:30;10.43;;;2.73;;
15287;SDS011;7745;48.708;9.026;2023-02-01T12:47:04;14.27;;;2.60;;
15287;SDS011;7745;48.708;9.026;2023-02-01T12:49:41;8.83;;;2.60;;
15287;SDS011;7745;48.708;9.026;2023-02-01T12:52:15;10.30;;;2.70;;
15287;SDS011;7745;48.708;9.026;2023-02-01T12:54:47;8.33;;;3.13;;
15287;SDS011;7745;48.708;9.026;2023-02-01T12:57:21;11.07;;;2.83;;
15287;SDS011;7745;48.708;9.026;2023-02-01T12:59:56;12.40;;;3.17;;
15287;SDS011;7745;48.708;9.026;2023-02-01T13:02:28;10.40;;;2.40;;
15287;SDS011;7745;48.708;9.026;2023-02-01T13:05:01;8.17;;;2.50;;
15287;SDS011;7745;48.708;9.026;2023-02-01T13:07:34;7.57;;;2.77;;
15287;SDS011;7745;48.708;9.026;2023-02-01T13:10:11;8.40;;;2.23;;
15287;SDS011;7745;48.708;9.026;2023-02-01T13:12:43;9.23;;;2.40;;
15287;SDS011;7745;48.708;9.026;2023-02-01T13:15:17;15.40;;;3.60;;
15287;SDS011;7745;48.708;9.026;2023-02-01T13:17:49;11.70;;;2.90;;
15287;SDS011;7745;48.708;9.026;2023-02-01T13:20:20;10.80;;;2.60;;
15287;SDS011;7745;48.708;9.026;2023-02-01T13:22:57;8.07;;;2.80;;
15287;SDS011;7745;48.708;9.026;2023-02-01T13:25:38;5.03;;;2.63;;
15287;SDS011;7745;48.708;9.026;2023-02-01T13:28:11;10.27;;;2.47;;
15287;SDS011;7745;48.708;9.026;2023-02-01T13:30:54;8.07;;;3.10;;
15287;SDS011;7745;48.708;9.026;2023-02-01T13:33:55;8.13;;;3.17;;
15287;SDS011;7745;48.708;9.026;2023-02-01T13:36:55;7.77;;;2.77;;
15287;SDS011;7745;48.708;9.026;2023-02-01T13:42:27;9.03;;;2.60;;
15287;SDS011;7745;48.708;9.026;2023-02-01T13:44:58;7.43;;;2.70;;
15287;SDS011;7745;48.708;9.026;2023-02-01T13:47:31;10.40;;;2.90;;
15287;SDS011;7745;48.708;9.026;2023-02-01T13:50:01;8.10;;;2.50;;
15287;SDS011;7745;48.708;9.026;2023-02-01T13:52:39;11.20;;;2.77;;
15287;SDS011;7745;48.708;9.026;2023-02-01T13:55:23;6.70;;;2.87;;
15287;SDS011;7745;48.708;9.026;2023-02-01T13:57:59;7.37;;;3.23;;
15287;SDS011;7745;48.708;9.026;2023-02-01T14:00:31;8.57;;;2.93;;
15287;SDS011;7745;48.708;9.026;2023-02-01T14:03:08;10.80;;;3.27;;
15287;SDS011;7745;48.708;9.026;2023-02-01T14:08:43;12.90;;;3.47;;
15287;SDS011;7745;48.708;9.026;2023-02-01T14:14:07;8.23;;;3.30;;
15287;SDS011;7745;48.708;9.026;2023-02-01T14:26:42;13.33;;;4.73;;
15287;SDS011;7745;48.708;9.026;2023-02-01T14:29:19;19.00;;;6.07;;
15287;SDS011;7745;48.708;9.026;2023-02-01T14:31:59;13.90;;;5.47;;
15287;SDS011;7745;48.708;9.026;2023-02-01T14:34:34;13.03;;;5.30;;
15287;SDS011;7745;48.708;9.026;2023-02-01T14:37:08;11.63;;;3.37;;
15287;SDS011;7745;48.708;9.026;2023-02-01T14:39:40;13.43;;;3.40;;
15287;SDS011;7745;48.708;9.026;2023-02-01T14:42:22;10.90;;;2.50;;
15287;SDS011;7745;48.708;9.026;2023-02-01T14:44:52;7.90;;;2.93;;
15287;SDS011;7745;48.708;9.026;2023-02-01T14:47:30;17.07;;;3.60;;
15287;SDS011;7745;48.708;9.026;2023-02-01T14:50:10;10.33;;;2.80;;
15287;SDS011;7745;48.708;9.026;2023-02-01T14:55:50;12.63;;;2.87;;
15287;SDS011;7745;48.708;9.026;2023-02-01T14:58:23;9.60;;;2.50;;
15287;SDS011;7745;48.708;9.026;2023-02-01T15:00:59;9.63;;;3.20;;
15287;SDS011;7745;48.708;9.026;2023-02-01T15:03:36;11.13;;;2.60;;
15287;SDS011;7745;48.708;9.026;2023-02-01T15:08:58;10.23;;;3.20;;
15287;SDS011;7745;48.708;9.026;2023-02-01T15:11:28;6.03;;;2.93;;
15287;SDS011;7745;48.708;9.026;2023-02-01T15:13:57;10.07;;;2.93;;
15287;SDS011;7745;48.708;9.026;2023-02-01T15:16:25;11.27;;;2.90;;
15287;SDS011;7745;48.708;9.026;2023-02-01T15:19:08;11.30;;;3.37;;
15287;SDS011;7745;48.708;9.026;2023-02-01T15:21:43;8.93;;;2.93;;
15287;SDS011;7745;48.708;9.026;2023-02-01T15:24:13;8.87;;;2.70;;
15287;SDS011;7745;48.708;9.026;2023-02-01T15:26:44;12.10;;;3.10;;
15287;SDS011;7745;48.708;9.026;2023-02-01T15:29:13;12.33;;;2.67;;
15287;SDS011;7745;48.708;9.026;2023-02-01T15:31:42;7.20;;;2.47;;
15287;SDS011;7745;48.708;9.026;2023-02-01T15:34:10;11.53;;;3.03;;
15287;SDS011;7745;48.708;9.026;2023-02-01T15:36:37;13.27;;;3.40;;
15287;SDS011;7745;48.708;9.026;2023-02-01T15:39:12;9.53;;;3.10;;
15287;SDS011;7745;48.708;9.026;2023-02-01T15:41:50;10.90;;;3.43;;
15287;SDS011;7745;48.708;9.026;2023-02-01T15:44:21;8.70;;;3.27;;
15287;SDS011;7745;48.708;9.026;2023-02-01T15:46:56;9.97;;;3.10;;
15287;SDS011;7745;48.708;9.026;2023-02-01T15:49:25;9.53;;;3.13;;
15287;SDS011;7745;48.708;9.026;2023-02-01T15:51:55;8.10;;;2.50;;
15287;SDS011;7745;48.708;9.026;2023-02-01T15:54:24;9.00;;;2.90;;
15287;SDS011;7745;48.708;9.026;2023-02-01T15:56:56;7.33;;;2.70;;
15287;SDS011;7745;48.708;9.026;2023-02-01T15:59:30;8.67;;;2.57;;
15287;SDS011;7745;48.708;9.026;2023-02-01T16:02:00;9.43;;;3.90;;
15287;SDS011;7745;48.708;9.026;2023-02-01T16:04:28;9.67;;;3.90;;
15287;SDS011;7745;48.708;9.026;2023-02-01T16:06:56;8.83;;;2.90;;
15287;SDS011;7745;48.708;9.026;2023-02-01T16:09:35;8.90;;;2.90;;